Time;durP1;ratioP1;P1;durP2;ratioP2;P2;SDS_P1;SDS_P2;PMS_P1;PMS_P2;Temp;Humidity;BMP_temperature;BMP_pressure;BME280_temperature;BME280_humidity;BME280_pressure;Samples;Min_cycle;Max_cycle;Signal;HPM_P1;HPM_P2
2023/02/06 00:00:51;;;;;;;9.73;6.87;;;0.60;99.90;;;;;;6178723;23;20912;-83
2023/02/06 00:03:19;;;;;;;10.40;7.60;;;0.70;99.90;;;;;;6178930;23;20926;-83
2023/02/06 00:05:54;;;;;;;8.60;6.67;;;0.90;99.90;;;;;;6179130;23;20423;-85
2023/02/06 00:08:21;;;;;;;8.93;6.90;;;0.80;99.90;;;;;;6179154;23;20956;-83
2023/02/06 00:10:48;;;;;;;11.07;8.00;;;0.70;99.90;;;;;;6178819;23;20747;-85
2023/02/06 00:13:14;;;;;;;9.80;6.60;;;0.70;99.90;;;;;;6178811;23;20431;-82
2023/02/06 00:15:43;;;;;;;10.10;6.67;;;0.70;99.90;;;;;;6178931;23;20411;-84
2023/02/06 00:18:10;;;;;;;9.33;6.93;;;0.70;99.90;;;;;;6178863;23;20426;-86
2023/02/06 00:20:37;;;;;;;7.30;5.90;;;0.70;99.90;;;;;;6178894;23;20494;-87
2023/02/06 00:23:04;;;;;;;9.30;7.30;;;0.80;99.90;;;;;;6180237;23;20400;-85
2023/02/06 00:25:31;;;;;;;8.70;7.00;;;0.70;99.90;;;;;;6180448;23;20490;-84
2023/02/06 00:27:57;;;;;;;6.87;6.17;;;0.70;99.90;;;;;;6180675;23;20415;-82
2023/02/06 00:30:24;;;;;;;7.23;6.50;;;0.60;99.90;;;;;;6180430;23;20414;-82
2023/02/06 00:32:53;;;;;;;10.43;6.43;;;0.60;99.90;;;;;;6180573;23;20505;-81
2023/02/06 00:35:20;;;;;;;9.67;7.20;;;0.70;99.90;;;;;;6180551;23;20763;-87
2023/02/06 00:37:47;;;;;;;11.27;6.70;;;0.70;99.90;;;;;;6180493;23;20909;-82
2023/02/06 00:40:13;;;;;;;7.27;6.23;;;0.90;99.90;;;;;;6180225;23;21137;-83
2023/02/06 00:42:40;;;;;;;8.17;6.33;;;0.80;99.90;;;;;;6180813;23;20416;-82
2023/02/06 00:45:09;;;;;;;7.70;7.00;;;2.10;99.90;;;;;;6180368;23;20393;-88
2023/02/06 00:47:36;;;;;;;12.37;7.60;;;0.90;99.90;;;;;;6180497;23;20797;-83
2023/02/06 00:50:05;;;;;;;9.30;6.53;;;0.80;99.90;;;;;;6179977;23;20402;-81
2023/02/06 00:52:32;;;;;;;8.17;6.33;;;0.90;99.90;;;;;;6180090;23;20774;-81
2023/02/06 00:54:58;;;;;;;8.13;6.17;;;0.80;99.90;;;;;;6179956;23;20615;-83
2023/02/06 00:57:25;;;;;;;8.60;5.93;;;0.80;99.90;;;;;;6179900;23;20427;-84
2023/02/06 00:59:53;;;;;;;11.43;6.50;;;0.70;99.90;;;;;;6180195;23;20458;-89
2023/02/06 01:02:19;;;;;;;11.50;6.60;;;0.70;99.90;;;;;;6180169;23;20419;-89
2023/02/06 01:04:46;;;;;;;8.33;6.57;;;0.70;99.90;;;;;;6180530;23;20917;-87
2023/02/06 01:07:14;;;;;;;10.13;6.90;;;0.80;99.90;;;;;;6180011;23;20798;-84
2023/02/06 01:09:41;;;;;;;8.33;7.00;;;0.70;99.90;;;;;;6180213;23;20411;-87
2023/02/06 01:12:08;;;;;;;11.00;8.30;;;0.70;99.90;;;;;;6180882;23;20412;-89
2023/02/06 01:14:35;;;;;;;10.47;7.17;;;0.70;99.90;;;;;;6180219;23;20450;-84
2023/02/06 01:17:02;;;;;;;9.47;7.97;;;0.70;99.90;;;;;;6180640;23;20428;-83
2023/02/06 01:19:28;;;;;;;12.37;6.60;;;0.60;99.90;;;;;;6181021;23;20521;-85
2023/02/06 01:21:55;;;;;;;10.90;6.70;;;0.60;99.90;;;;;;6180783;23;20404;-87
2023/02/06 01:24:23;;;;;;;7.50;6.70;;;0.70;99.90;;;;;;6182167;23;20406;-88
2023/02/06 01:26:50;;;;;;;12.47;7.40;;;0.70;99.90;;;;;;6181095;23;20400;-90
2023/02/06 01:29:17;;;;;;;10.03;6.17;;;0.70;99.90;;;;;;6184940;23;20408;-89
2023/02/06 01:31:44;;;;;;;8.23;6.23;;;0.70;99.90;;;;;;6181857;23;20407;-82
2023/02/06 01:34:11;;;;;;;7.60;6.90;;;0.70;99.90;;;;;;6179778;23;20745;-86
2023/02/06 01:36:38;;;;;;;9.30;7.17;;;0.70;99.90;;;;;;6179760;23;20496;-81
2023/02/06 01:39:05;;;;;;;8.57;7.50;;;0.70;99.90;;;;;;6179963;23;20453;-82
2023/02/06 01:41:34;;;;;;;7.80;7.00;;;1.20;99.90;;;;;;6180012;23;20419;-84
2023/02/06 01:44:14;;;;;;;7.07;6.37;;;0.70;99.90;;;;;;6179697;23;20416;-85
2023/02/06 01:46:43;;;;;;;7.07;5.80;;;0.70;99.90;;;;;;6179958;23;20423;-82
2023/02/06 01:49:13;;;;;;;8.83;6.83;;;0.80;99.90;;;;;;6179731;23;20424;-84
2023/02/06 01:51:40;;;;;;;12.03;7.50;;;0.70;99.90;;;;;;6180077;23;20391;-82
2023/02/06 01:54:08;;;;;;;8.83;7.80;;;0.70;99.90;;;;;;6180360;23;20423;-82
2023/02/06 01:56:40;;;;;;;9.07;6.90;;;0.70;99.90;;;;;;6180003;23;20419;-82
2023/02/06 01:59:07;;;;;;;11.90;7.40;;;0.70;99.90;;;;;;6179671;23;20443;-84
2023/02/06 02:01:34;;;;;;;11.80;6.73;;;0.80;99.90;;;;;;6180058;23;20408;-81
2023/02/06 02:04:05;;;;;;;10.70;7.23;;;0.70;99.90;;;;;;6179457;23;20416;-83
2023/02/06 02:06:33;;;;;;;8.50;6.13;;;0.70;99.90;;;;;;6180187;23;20403;-84
2023/02/06 02:09:02;;;;;;;7.97;6.50;;;0.80;99.90;;;;;;6180284;23;20419;-88
2023/02/06 02:11:31;;;;;;;9.30;7.27;;;0.60;99.90;;;;;;6180056;23;20419;-84
2023/02/06 02:14:00;;;;;;;10.67;7.47;;;0.70;99.90;;;;;;6179334;23;20550;-80
2023/02/06 02:16:40;;;;;;;8.47;6.53;;;0.70;99.90;;;;;;6179473;23;20411;-84
2023/02/06 02:19:50;;;;;;;10.40;6.87;;;0.70;99.90;;;;;;6179627;23;20844;-81
2023/02/06 02:22:38;;;;;;;16.30;7.83;;;0.70;99.90;;;;;;6179432;23;20396;-81
2023/02/06 02:25:34;;;;;;;9.33;7.67;;;0.60;99.90;;;;;;6179447;23;20401;-83
2023/02/06 02:28:30;;;;;;;10.00;7.17;;;0.60;99.90;;;;;;6179709;23;20395;-85
2023/02/06 02:31:35;;;;;;;10.50;7.87;;;0.60;99.90;;;;;;6179443;23;20404;-83
2023/02/06 02:34:38;;;;;;;10.73;7.73;;;0.60;99.90;;;;;;6179851;23;20400;-84
2023/02/06 02:37:15;;;;;;;11.37;7.23;;;0.60;99.90;;;;;;6134721;23;20412;-80
2023/02/06 02:39:46;;;;;;;12.70;7.90;;;0.50;99.90;;;;;;6179431;23;20462;-87
2023/02/06 02:42:19;;;;;;;8.10;7.10;;;0.50;99.90;;;;;;6179795;23;20412;-83
2023/02/06 02:44:50;;;;;;;14.70;8.50;;;0.60;99.90;;;;;;6178885;23;20423;-85
2023/02/06 02:47:21;;;;;;;9.43;7.73;;;0.50;99.90;;;;;;6179706;23;20381;-85
2023/02/06 02:49:49;;;;;;;9.00;7.17;;;0.60;99.90;;;;;;6179745;23;20406;-85
2023/02/06 02:52:19;;;;;;;9.10;6.90;;;0.50;99.90;;;;;;6179892;23;20424;-81
2023/02/06 02:54:45;;;;;;;9.60;6.93;;;0.40;99.90;;;;;;6180013;23;20419;-86
2023/02/06 02:57:17;;;;;;;10.00;7.20;;;0.40;99.90;;;;;;6184082;23;20415;-87
2023/02/06 02:59:46;;;;;;;10.70;7.63;;;0.20;99.90;;;;;;6183725;23;20474;-86
2023/02/06 03:02:17;;;;;;;11.70;8.13;;;0.40;99.90;;;;;;6183548;23;20403;-88
2023/02/06 03:04:48;;;;;;;10.53;6.90;;;0.40;99.90;;;;;;6183586;23;20418;-86
2023/02/06 03:07:29;;;;;;;9.23;7.50;;;0.50;99.90;;;;;;6180843;23;20419;-80
2023/02/06 03:10:03;;;;;;;10.50;7.77;;;0.30;99.90;;;;;;6178978;23;20939;-81
2023/02/06 03:12:38;;;;;;;11.93;8.63;;;0.20;99.90;;;;;;6179167;23;20391;-85
2023/02/06 03:15:12;;;;;;;13.00;8.13;;;0.30;99.90;;;;;;6179220;23;20722;-82
2023/02/06 03:17:43;;;;;;;13.10;8.53;;;0.30;99.90;;;;;;6179799;23;20395;-85
2023/02/06 03:20:11;;;;;;;10.97;8.40;;;0.80;99.90;;;;;;6180046;23;20486;-83
2023/02/06 03:22:43;;;;;;;11.60;8.63;;;0.10;99.90;;;;;;6180618;23;20422;-81
2023/02/06 03:25:13;;;;;;;10.60;8.20;;;0.10;99.90;;;;;;6183278;23;20451;-81
2023/02/06 03:27:43;;;;;;;15.63;9.13;;;0.00;99.90;;;;;;6184832;23;20400;-83
2023/02/06 03:30:13;;;;;;;11.40;9.07;;;-0.30;99.90;;;;;;6185787;23;20410;-82
2023/02/06 03:32:42;;;;;;;12.60;9.00;;;0.00;99.90;;;;;;6185747;23;20418;-82
2023/02/06 03:35:14;;;;;;;14.23;8.20;;;-0.10;99.90;;;;;;6181652;23;20426;-79
2023/02/06 03:37:42;;;;;;;12.60;8.63;;;;;;;;;;6178755;23;20479;-83
2023/02/06 03:40:10;;;;;;;10.97;8.10;;;;;;;;;;6178336;23;20469;-80
2023/02/06 03:42:41;;;;;;;11.07;8.00;;;-0.30;99.90;;;;;;6179114;23;20596;-80
2023/02/06 03:45:10;;;;;;;11.07;8.40;;;;;;;;;;6179194;23;20891;-81
2023/02/06 03:47:39;;;;;;;13.53;8.50;;;;;;;;;;6179938;23;20403;-87
2023/02/06 03:50:09;;;;;;;16.70;9.30;;;-0.10;99.90;;;;;;6180117;23;20411;-80
2023/02/06 03:52:39;;;;;;;12.23;8.30;;;-0.20;99.90;;;;;;6179802;23;20925;-83
2023/02/06 03:55:12;;;;;;;11.53;7.77;;;-0.20;99.90;;;;;;6185550;23;20400;-84
2023/02/06 03:57:41;;;;;;;12.67;7.70;;;-0.20;99.90;;;;;;6189781;23;20441;-82
2023/02/06 04:00:10;;;;;;;10.30;7.77;;;-0.30;99.90;;;;;;6183120;23;20453;-80
2023/02/06 04:02:38;;;;;;;12.37;8.20;;;-0.30;99.90;;;;;;6180464;23;20760;-79
2023/02/06 04:05:05;;;;;;;12.43;7.47;;;-0.40;99.90;;;;;;6180866;23;20499;-78
2023/02/06 04:07:33;;;;;;;9.83;7.30;;;;;;;;;;6181030;23;20426;-81
2023/02/06 04:10:01;;;;;;;11.33;8.10;;;;;;;;;;6180558;23;20407;-82
2023/02/06 04:12:29;;;;;;;11.40;7.43;;;-0.70;99.90;;;;;;6180121;23;20900;-80
2023/02/06 04:14:56;;;;;;;10.07;8.30;;;;;;;;;;6180639;23;20427;-79
2023/02/06 04:17:23;;;;;;;11.17;8.07;;;-0.80;99.90;;;;;;6179981;23;20392;-79
2023/02/06 04:19:50;;;;;;;9.60;7.07;;;;;;;;;;6179982;23;20446;-79
2023/02/06 04:22:17;;;;;;;9.37;7.10;;;-0.90;99.90;;;;;;6180033;23;20613;-81
2023/02/06 04:24:44;;;;;;;13.37;8.10;;;-0.90;99.90;;;;;;6179645;23;20916;-80
2023/02/06 04:27:13;;;;;;;9.33;7.07;;;-1.10;99.90;;;;;;6179841;23;20419;-80
2023/02/06 04:29:42;;;;;;;8.37;7.20;;;;;;;;;;6179614;23;20422;-79
2023/02/06 04:32:09;;;;;;;11.10;8.03;;;;;;;;;;6180020;23;20411;-80
2023/02/06 04:34:36;;;;;;;12.50;8.17;;;;;;;;;;6179784;23;20422;-79
2023/02/06 04:37:04;;;;;;;9.77;8.30;;;;;;;;;;6179472;23;20421;-79
2023/02/06 04:39:33;;;;;;;11.53;7.00;;;;;;;;;;6179597;23;20419;-80
2023/02/06 04:42:01;;;;;;;11.40;7.00;;;;;;;;;;6179493;23;20419;-81
2023/02/06 04:44:28;;;;;;;8.87;7.10;;;;;;;;;;6179916;23;20477;-80
2023/02/06 04:46:57;;;;;;;10.27;7.37;;;;;;;;;;6180001;23;20403;-81
2023/02/06 04:49:24;;;;;;;13.10;7.77;;;;;;;;;;6180341;23;20728;-79
2023/02/06 04:51:51;;;;;;;12.50;8.80;;;;;;;;;;6179717;23;20412;-80
2023/02/06 04:54:18;;;;;;;11.67;7.73;;;;;;;;;;6179618;23;20415;-81
2023/02/06 04:56:45;;;;;;;9.50;7.07;;;;;;;;;;6179978;23;20434;-81
2023/02/06 04:59:12;;;;;;;11.60;7.30;;;;;;;;;;6179603;23;20418;-80
2023/02/06 05:01:39;;;;;;;10.33;8.00;;;-1.30;99.90;;;;;;6179038;23;20439;-80
2023/02/06 05:04:08;;;;;;;11.13;7.93;;;-1.30;99.90;;;;;;6179976;23;20449;-79
2023/02/06 05:06:35;;;;;;;13.07;11.63;;;;;;;;;;6180867;23;20490;-79
2023/02/06 05:09:03;;;;;;;11.87;7.40;;;-1.40;99.90;;;;;;6179485;23;20779;-80
2023/02/06 05:11:30;;;;;;;8.77;6.93;;;-1.50;99.90;;;;;;6178593;23;20748;-80
2023/02/06 05:13:57;;;;;;;12.33;7.37;;;-1.70;99.90;;;;;;6152447;23;20513;-80
2023/02/06 05:16:24;;;;;;;12.63;8.50;;;-1.70;99.90;;;;;;6179624;23;20908;-79
2023/02/06 05:18:53;;;;;;;11.27;8.27;;;-1.60;99.90;;;;;;6179300;23;20434;-79
2023/02/06 05:21:22;;;;;;;16.13;8.27;;;-1.50;99.90;;;;;;6179195;23;20473;-79
2023/02/06 05:23:49;;;;;;;14.93;7.43;;;-1.60;99.90;;;;;;6179580;23;20413;-80
2023/02/06 05:26:16;;;;;;;11.33;7.37;;;-1.60;99.90;;;;;;6180138;23;20415;-79
2023/02/06 05:28:43;;;;;;;8.27;7.00;;;-1.60;99.90;;;;;;6181214;23;20422;-78
2023/02/06 05:31:10;;;;;;;9.40;6.97;;;-1.70;99.90;;;;;;6181934;23;20403;-84
2023/02/06 05:33:36;;;;;;;19.73;7.13;;;-1.60;99.90;;;;;;6191351;23;20831;-79
2023/02/06 05:36:06;;;;;;;9.10;7.20;;;-1.60;99.90;;;;;;6183187;23;20502;-79
2023/02/06 05:38:34;;;;;;;10.27;7.83;;;-1.60;99.90;;;;;;6189481;22;20453;-79
2023/02/06 05:41:01;;;;;;;12.23;7.40;;;-1.70;99.90;;;;;;6242037;23;20441;-77
2023/02/06 05:43:27;;;;;;;11.20;7.53;;;-1.50;99.90;;;;;;6239383;23;20410;-77
2023/02/06 05:45:54;;;;;;;12.97;8.40;;;-1.60;99.90;;;;;;6239809;23;20410;-79
2023/02/06 05:48:21;;;;;;;16.93;8.87;;;-1.60;99.90;;;;;;6245569;23;20414;-79
2023/02/06 05:50:49;;;;;;;14.37;9.43;;;-1.70;99.90;;;;;;6242768;23;20413;-77
2023/02/06 05:53:16;;;;;;;15.30;9.87;;;-1.50;99.90;;;;;;6238759;23;20433;-77
2023/02/06 05:55:44;;;;;;;13.90;8.77;;;-1.60;99.90;;;;;;6237832;23;20405;-77
2023/02/06 05:58:11;;;;;;;16.80;10.47;;;-1.60;99.90;;;;;;6237579;23;20738;-78
2023/02/06 06:00:38;;;;;;;11.90;8.90;;;-1.70;99.90;;;;;;6238950;23;20447;-77
2023/02/06 06:03:05;;;;;;;12.43;9.33;;;-1.70;99.90;;;;;;6237565;23;20746;-77
2023/02/06 06:05:32;;;;;;;13.77;9.10;;;-1.80;99.90;;;;;;6239614;23;20420;-77
2023/02/06 06:07:58;;;;;;;14.77;9.30;;;-1.70;99.90;;;;;;6244942;23;20410;-78
2023/02/06 06:10:25;;;;;;;13.87;11.10;;;-1.80;99.90;;;;;;6238902;23;20405;-72
2023/02/06 06:12:54;;;;;;;16.50;11.20;;;-1.70;99.90;;;;;;6241757;23;20412;-75
2023/02/06 06:15:20;;;;;;;15.53;10.57;;;-1.80;99.90;;;;;;6239318;23;20398;-78
2023/02/06 06:17:47;;;;;;;13.10;8.17;;;-1.90;99.90;;;;;;6238105;23;20961;-77
2023/02/06 06:20:14;;;;;;;15.93;10.10;;;-1.70;99.90;;;;;;6239398;23;20406;-77
2023/02/06 06:22:41;;;;;;;16.13;10.73;;;-1.10;99.90;;;;;;6240705;23;20413;-72
2023/02/06 06:25:08;;;;;;;16.60;10.60;;;-1.70;99.90;;;;;;6243285;23;20394;-77
2023/02/06 06:27:34;;;;;;;16.60;11.90;;;-1.60;99.90;;;;;;6258155;23;20485;-80
2023/02/06 06:30:03;;;;;;;17.73;11.13;;;-1.60;99.90;;;;;;6249964;23;20911;-77
2023/02/06 06:32:30;;;;;;;21.97;13.57;;;-1.70;99.90;;;;;;6240768;23;20398;-76
2023/02/06 06:34:56;;;;;;;21.37;13.37;;;-1.60;99.90;;;;;;6240813;23;20415;-76
2023/02/06 06:37:23;;;;;;;20.30;10.43;;;-1.70;99.90;;;;;;6240154;23;20417;-78
2023/02/06 06:39:50;;;;;;;17.53;11.13;;;-1.70;99.90;;;;;;6240588;23;20442;-77
2023/02/06 06:42:17;;;;;;;18.37;11.87;;;-1.40;99.90;;;;;;6240198;23;20551;-77
2023/02/06 06:44:43;;;;;;;15.80;11.57;;;-1.50;99.90;;;;;;6240683;23;20393;-78
2023/02/06 06:47:11;;;;;;;17.77;10.47;;;-1.60;99.90;;;;;;6248045;23;20902;-78
2023/02/06 06:49:38;;;;;;;19.00;12.43;;;-1.60;99.90;;;;;;6253153;23;20437;-82
2023/02/06 06:52:05;;;;;;;18.60;10.93;;;-1.70;99.90;;;;;;6252823;23;20417;-78
2023/02/06 06:54:32;;;;;;;16.83;10.77;;;-1.50;99.90;;;;;;6251106;23;20417;-79
2023/02/06 06:56:59;;;;;;;21.03;10.73;;;-1.60;99.90;;;;;;6245177;23;20422;-79
2023/02/06 06:59:26;;;;;;;21.50;12.80;;;-1.60;99.90;;;;;;6240905;23;20446;-78
2023/02/06 07:01:53;;;;;;;19.20;11.90;;;-1.80;99.90;;;;;;6240132;23;20475;-77
2023/02/06 07:04:21;;;;;;;18.30;11.77;;;-1.70;99.90;;;;;;6238786;23;20846;-79
2023/02/06 07:06:48;;;;;;;19.40;12.27;;;-1.70;99.90;;;;;;6241266;23;20433;-77
2023/02/06 07:09:15;;;;;;;17.87;11.57;;;-1.60;99.90;;;;;;6239417;23;21197;-77
2023/02/06 07:11:42;;;;;;;17.13;10.47;;;-1.60;99.90;;;;;;6239141;23;20402;-77
2023/02/06 07:14:09;;;;;;;22.40;10.80;;;-1.70;99.90;;;;;;6239195;23;20416;-77
2023/02/06 07:16:35;;;;;;;14.80;9.80;;;-1.60;99.90;;;;;;6238243;23;20412;-77
2023/02/06 07:19:02;;;;;;;14.70;10.93;;;-1.70;99.90;;;;;;6239963;23;20417;-76
2023/02/06 07:21:30;;;;;;;13.60;10.60;;;-1.50;99.90;;;;;;6238323;23;20969;-75
2023/02/06 07:23:57;;;;;;;14.50;10.37;;;-1.50;99.90;;;;;;6238548;23;20904;-73
2023/02/06 07:26:24;;;;;;;17.77;10.60;;;-1.50;99.90;;;;;;6238552;23;20439;-74
2023/02/06 07:28:51;;;;;;;17.60;11.37;;;-1.50;99.90;;;;;;6238425;23;20421;-73
2023/02/06 07:31:18;;;;;;;22.50;12.87;;;-1.50;99.90;;;;;;6238657;23;20414;-74
2023/02/06 07:33:44;;;;;;;14.90;10.70;;;-1.40;99.90;;;;;;6238414;23;20402;-74
2023/02/06 07:36:12;;;;;;;13.07;10.13;;;-1.40;99.90;;;;;;6238346;23;20650;-74
2023/02/06 07:38:41;;;;;;;14.00;10.90;;;-1.30;99.90;;;;;;6238239;23;20838;-73
2023/02/06 07:41:08;;;;;;;12.73;9.90;;;-1.30;99.90;;;;;;6238342;23;20434;-72
2023/02/06 07:43:35;;;;;;;23.37;10.47;;;-1.30;99.90;;;;;;6238497;23;20411;-73
2023/02/06 07:46:03;;;;;;;23.00;9.73;;;-1.30;99.90;;;;;;6238583;23;20418;-74
2023/02/06 07:48:30;;;;;;;13.63;9.70;;;-1.10;99.90;;;;;;6238420;23;20389;-73
2023/02/06 07:51:03;;;;;;;15.17;9.63;;;-1.10;99.90;;;;;;6238097;23;20416;-74
2023/02/06 07:53:30;;;;;;;12.80;10.20;;;-1.10;99.90;;;;;;6238686;23;20961;-74
2023/02/06 07:55:58;;;;;;;12.60;9.03;;;-0.90;99.90;;;;;;6238296;23;20435;-74
2023/02/06 07:58:25;;;;;;;16.43;11.30;;;-0.80;99.90;;;;;;6238881;23;20404;-74
2023/02/06 08:00:53;;;;;;;20.00;13.03;;;-0.80;99.90;;;;;;6240068;23;20463;-74
2023/02/06 08:03:20;;;;;;;16.73;11.23;;;-0.80;99.90;;;;;;6238938;23;20417;-74
2023/02/06 08:05:47;;;;;;;14.97;11.23;;;-0.80;99.90;;;;;;6238135;23;20447;-75
2023/02/06 08:08:14;;;;;;;15.57;10.70;;;-0.90;99.90;;;;;;6239214;23;20704;-74
2023/02/06 08:10:41;;;;;;;13.20;9.20;;;-0.90;99.90;;;;;;6238114;23;20421;-74
2023/02/06 08:13:09;;;;;;;11.47;9.50;;;-1.00;99.90;;;;;;6237707;23;20389;-74
2023/02/06 08:15:36;;;;;;;17.60;11.93;;;-0.90;99.90;;;;;;6237291;23;20428;-73
2023/02/06 08:18:02;;;;;;;15.90;10.50;;;-1.10;99.90;;;;;;6238607;23;20404;-74
2023/02/06 08:20:29;;;;;;;16.07;10.50;;;-1.10;99.90;;;;;;6238516;23;20413;-74
2023/02/06 08:22:56;;;;;;;20.50;10.83;;;-0.90;99.90;;;;;;6237906;23;20532;-74
2023/02/06 08:25:23;;;;;;;12.40;8.33;;;-0.80;99.90;;;;;;6237550;23;20421;-74
2023/02/06 08:27:53;;;;;;;12.73;8.23;;;-0.60;99.90;;;;;;6238831;23;20394;-75
2023/02/06 08:30:21;;;;;;;17.83;9.27;;;-0.50;99.90;;;;;;6238534;23;20409;-75
2023/02/06 08:32:48;;;;;;;10.77;8.50;;;-0.50;99.90;;;;;;6238203;23;20426;-74
2023/02/06 08:35:15;;;;;;;11.20;8.00;;;-0.50;99.90;;;;;;6238896;23;20574;-74
2023/02/06 08:37:41;;;;;;;13.03;8.67;;;-0.30;99.90;;;;;;6238586;23;20412;-74
2023/02/06 08:40:09;;;;;;;12.40;9.07;;;-0.60;99.90;;;;;;6238467;23;20449;-73
2023/02/06 08:42:36;;;;;;;12.43;8.20;;;-0.40;99.90;;;;;;6238387;23;20970;-75
2023/02/06 08:45:03;;;;;;;8.60;6.90;;;-0.20;99.90;;;;;;6240153;23;20945;-76
2023/02/06 08:47:31;;;;;;;11.03;7.73;;;0.00;99.90;;;;;;6240463;23;20902;-77
2023/02/06 08:49:58;;;;;;;10.20;7.83;;;-0.10;99.90;;;;;;6240797;23;20586;-77
2023/02/06 08:52:25;;;;;;;11.77;7.37;;;0.40;99.90;;;;;;6239782;23;20433;-77
2023/02/06 08:54:52;;;;;;;9.10;6.60;;;0.40;99.90;;;;;;6240543;23;20705;-82
2023/02/06 08:57:19;;;;;;;9.33;7.17;;;0.70;99.90;;;;;;6244431;23;20468;-78
2023/02/06 08:59:45;;;;;;;10.57;7.13;;;0.80;99.90;;;;;;6248155;23;20409;-83
2023/02/06 09:02:12;;;;;;;13.20;8.70;;;1.10;99.90;;;;;;6240609;23;20452;-75
2023/02/06 09:04:41;;;;;;;10.20;6.30;;;1.40;99.90;;;;;;6240760;23;20833;-77
2023/02/06 09:07:08;;;;;;;8.40;5.77;;;1.60;99.90;;;;;;6240530;23;20407;-77
2023/02/06 09:09:35;;;;;;;8.13;6.37;;;2.00;99.90;;;;;;6241150;23;20414;-77
2023/02/06 09:12:02;;;;;;;10.93;7.30;;;2.20;99.90;;;;;;6241800;23;20402;-77
2023/02/06 09:14:29;;;;;;;9.40;7.00;;;1.30;99.90;;;;;;6242003;23;20721;-77
2023/02/06 09:16:57;;;;;;;9.67;7.87;;;1.40;99.90;;;;;;6239412;23;20802;-75
2023/02/06 09:19:24;;;;;;;11.63;6.07;;;2.70;99.90;;;;;;6240919;23;20710;-75
2023/02/06 09:21:52;;;;;;;7.63;5.50;;;3.50;99.90;;;;;;6243930;23;20442;-77
2023/02/06 09:24:19;;;;;;;5.80;5.20;;;3.60;99.90;;;;;;6242249;23;20401;-77
2023/02/06 09:26:46;;;;;;;8.47;5.77;;;3.40;99.90;;;;;;6242290;23;20391;-77
2023/02/06 09:29:13;;;;;;;10.57;5.63;;;;;;;;;;6242185;23;20416;-76
2023/02/06 09:31:41;;;;;;;9.40;6.10;;;;;;;;;;6241860;23;20430;-75
2023/02/06 09:34:09;;;;;;;12.53;7.00;;;5.60;99.90;;;;;;6241586;23;20387;-76
2023/02/06 09:36:36;;;;;;;5.20;4.20;;;6.10;99.90;;;;;;6241346;23;20406;-77
2023/02/06 09:39:06;;;;;;;8.40;5.50;;;6.20;99.90;;;;;;6240784;23;20434;-77
2023/02/06 09:41:38;;;;;;;7.23;5.60;;;5.90;99.90;;;;;;6241083;23;20435;-76
2023/02/06 09:44:10;;;;;;;5.73;5.30;;;5.50;99.90;;;;;;6239568;23;20413;-75
2023/02/06 09:46:44;;;;;;;8.23;6.20;;;4.80;99.90;;;;;;6241275;23;20566;-76
2023/02/06 09:49:16;;;;;;;11.93;7.30;;;4.60;99.90;;;;;;6241007;23;20422;-76
2023/02/06 09:52:17;;;;;;;6.07;5.47;;;4.40;99.90;;;;;;6241041;23;20848;-76
2023/02/06 09:54:57;;;;;;;9.93;7.43;;;4.40;99.90;;;;;;6202071;23;20520;-76
2023/02/06 09:57:34;;;;;;;6.97;6.33;;;3.70;99.90;;;;;;6240925;23;20394;-76
2023/02/06 10:00:06;;;;;;;11.03;7.13;;;3.80;99.90;;;;;;6240425;23;20895;-77
2023/02/06 10:02:50;;;;;;;11.50;6.47;;;3.90;99.90;;;;;;6240779;23;20442;-76
2023/02/06 10:05:23;;;;;;;7.07;6.30;;;3.90;99.90;;;;;;6240483;23;20482;-76
2023/02/06 10:08:03;;;;;;;7.50;5.90;;;4.20;99.90;;;;;;6241335;23;20391;-77
2023/02/06 10:10:37;;;;;;;6.47;4.30;;;5.00;99.90;;;;;;6240589;23;20430;-76
2023/02/06 10:13:10;;;;;;;5.97;5.47;;;5.80;99.90;;;;;;6240657;23;20842;-75
2023/02/06 10:15:41;;;;;;;7.63;5.47;;;6.60;99.90;;;;;;6240563;23;20400;-75
2023/02/06 10:18:14;;;;;;;8.97;5.73;;;3.80;99.90;;;;;;6240057;23;20732;-76
2023/02/06 10:20:44;;;;;;;6.57;5.87;;;;;;;;;;6240685;23;20928;-78
2023/02/06 10:23:18;;;;;;;7.60;6.60;;;2.10;99.90;;;;;;6240244;23;20540;-82
2023/02/06 10:25:54;;;;;;;5.97;5.37;;;2.30;99.90;;;;;;6242494;23;20481;-76
2023/02/06 10:28:24;;;;;;;6.83;5.37;;;3.20;99.90;;;;;;6241494;23;20390;-75
2023/02/06 10:31:15;;;;;;;5.70;4.67;;;3.50;99.90;;;;;;6240761;23;20393;-75
2023/02/06 10:33:49;;;;;;;6.50;5.53;;;3.60;99.90;;;;;;6240735;23;20426;-75
2023/02/06 10:36:31;;;;;;;7.93;5.80;;;1.80;99.90;;;;;;6240314;23;20391;-75
2023/02/06 10:39:19;;;;;;;6.00;4.70;;;1.20;99.90;;;;;;6238959;23;20421;-77
2023/02/06 10:41:55;;;;;;;6.33;4.57;;;1.50;99.90;;;;;;6239405;23;20439;-79
2023/02/06 10:44:29;;;;;;;7.70;5.03;;;2.30;99.90;;;;;;6240731;23;20880;-79
2023/02/06 10:46:57;;;;;;;6.70;5.80;;;2.70;99.90;;;;;;6241398;23;20427;-77
2023/02/06 10:49:29;;;;;;;6.40;4.77;;;2.90;99.90;;;;;;6241379;23;20490;-82
2023/02/06 10:51:59;;;;;;;7.90;5.50;;;3.10;99.90;;;;;;6240280;23;20439;-79
2023/02/06 10:54:31;;;;;;;8.27;6.13;;;3.60;99.90;;;;;;6240110;23;20424;-77
2023/02/06 10:57:00;;;;;;;10.10;6.13;;;1.60;99.90;;;;;;6240886;23;20402;-75
2023/02/06 10:59:31;;;;;;;9.23;6.97;;;0.80;99.90;;;;;;6242834;23;20413;-74
2023/02/06 11:02:17;;;;;;;6.70;5.50;;;0.30;99.90;;;;;;6243292;23;20440;-74
2023/02/06 11:04:50;;;;;;;8.40;5.73;;;0.00;99.90;;;;;;6243550;23;20401;-74
2023/02/06 11:07:23;;;;;;;7.80;5.40;;;0.30;99.90;;;;;;6241697;23;20911;-81
2023/02/06 11:09:51;;;;;;;11.83;6.30;;;1.10;99.90;;;;;;6238424;23;20460;-75
2023/02/06 11:12:27;;;;;;;9.77;6.97;;;1.40;99.90;;;;;;6238759;23;20410;-77
2023/02/06 11:14:57;;;;;;;7.90;5.10;;;1.50;99.90;;;;;;6238694;23;20413;-76
2023/02/06 11:17:27;;;;;;;7.00;5.00;;;1.00;99.90;;;;;;6239138;23;20402;-79
2023/02/06 11:20:00;;;;;;;15.40;6.20;;;1.50;99.90;;;;;;6240408;23;20410;-75
2023/02/06 11:22:29;;;;;;;8.20;5.60;;;0.50;99.90;;;;;;6243312;23;20437;-76
2023/02/06 11:25:03;;;;;;;6.10;4.63;;;0.30;99.90;;;;;;6244692;23;20911;-77
2023/02/06 11:27:33;;;;;;;5.60;5.10;;;0.50;99.90;;;;;;6243847;23;20402;-76
2023/02/06 11:30:06;;;;;;;10.53;6.50;;;0.70;99.90;;;;;;6243273;23;20882;-76
2023/02/06 11:32:39;;;;;;;5.83;5.20;;;0.90;99.90;;;;;;6241151;23;20455;-77
2023/02/06 11:35:17;;;;;;;7.53;5.93;;;1.30;99.90;;;;;;6240520;23;20401;-80
2023/02/06 11:37:44;;;;;;;7.70;5.70;;;1.80;99.90;;;;;;6240930;23;20449;-78
2023/02/06 11:40:21;;;;;;;6.07;5.07;;;1.50;99.90;;;;;;6238892;23;20430;-82
2023/02/06 11:42:52;;;;;;;5.43;4.63;;;1.80;99.90;;;;;;6238437;23;20516;-82
2023/02/06 11:45:27;;;;;;;6.27;4.53;;;2.20;99.90;;;;;;6239443;23;20414;-83
2023/02/06 11:47:55;;;;;;;23.27;6.13;;;2.60;99.90;;;;;;6239112;23;20713;-84
2023/02/06 11:50:26;;;;;;;5.83;5.23;;;2.10;99.90;;;;;;6242060;23;20398;-80
2023/02/06 11:52:59;;;;;;;8.07;5.13;;;1.00;99.90;;;;;;6240107;23;20977;-87
2023/02/06 11:55:28;;;;;;;5.50;5.03;;;1.80;99.90;;;;;;6242658;23;20394;-88
2023/02/06 11:58:07;;;;;;;7.13;5.73;;;2.20;99.90;;;;;;6242675;23;20489;-85
2023/02/06 12:00:36;;;;;;;8.87;5.40;;;1.10;99.90;;;;;;6245182;23;20379;-85
2023/02/06 12:03:04;;;;;;;11.03;5.93;;;1.60;99.90;;;;;;6243547;23;20994;-87
2023/02/06 12:05:38;;;;;;;5.67;5.10;;;1.20;99.90;;;;;;6248954;23;20716;-81
2023/02/06 12:08:12;;;;;;;8.37;6.00;;;0.60;99.90;;;;;;6248259;23;20517;-80
2023/02/06 12:10:51;;;;;;;5.20;4.70;;;0.40;99.90;;;;;;6249504;23;20472;-82
2023/02/06 12:13:25;;;;;;;15.90;6.30;;;0.80;99.90;;;;;;6243646;23;20393;-85
2023/02/06 12:15:56;;;;;;;8.23;5.80;;;0.70;99.90;;;;;;6253789;23;20402;-83
2023/02/06 12:18:26;;;;;;;8.70;5.97;;;0.30;99.90;;;;;;6250883;23;20398;-83
2023/02/06 12:20:59;;;;;;;8.60;6.70;;;0.10;99.90;;;;;;6255927;23;20386;-79
2023/02/06 12:23:31;;;;;;;12.70;5.90;;;0.00;99.90;;;;;;6262796;23;20436;-80
2023/02/06 12:26:00;;;;;;;9.37;5.87;;;0.00;99.90;;;;;;6267919;23;20421;-83
2023/02/06 12:28:33;;;;;;;9.67;5.47;;;0.20;99.90;;;;;;6260748;23;20464;-79
2023/02/06 12:31:07;;;;;;;9.60;5.17;;;0.70;99.90;;;;;;6249502;23;20386;-86
2023/02/06 12:33:40;;;;;;;6.20;5.60;;;1.00;99.90;;;;;;6245481;23;20420;-89
2023/02/06 12:36:14;;;;;;;7.53;5.60;;;1.20;99.90;;;;;;6246637;23;20405;-90
2023/02/06 12:38:48;;;;;;;5.67;5.17;;;1.30;99.90;;;;;;6250719;23;20404;-91
2023/02/06 12:41:37;;;;;;;6.17;4.97;;;1.30;99.90;;;;;;6252228;23;20418;-89
2023/02/06 12:44:24;;;;;;;6.90;4.60;;;1.40;99.90;;;;;;6247491;23;20442;-85
2023/02/06 12:46:56;;;;;;;8.13;5.60;;;1.50;99.90;;;;;;6250715;23;20440;-92
2023/02/06 12:49:28;;;;;;;7.77;5.73;;;1.50;99.90;;;;;;6250372;23;20865;-91
2023/02/06 12:52:00;;;;;;;8.77;5.53;;;1.40;99.90;;;;;;6242509;23;20438;-89
2023/02/06 12:54:31;;;;;;;10.93;6.83;;;1.20;99.90;;;;;;6243308;23;20424;-85
2023/02/06 12:57:04;;;;;;;8.73;7.17;;;1.40;99.90;;;;;;6242072;23;20987;-86
2023/02/06 12:59:59;;;;;;;14.03;6.80;;;1.30;99.90;;;;;;6250892;23;20389;-85
2023/02/06 13:03:02;;;;;;;7.50;5.57;;;0.50;99.90;;;;;;6252700;23;20733;-89
2023/02/06 13:05:34;;;;;;;10.60;6.20;;;1.00;99.90;;;;;;6245810;23;20392;-88
2023/02/06 13:08:06;;;;;;;11.73;5.87;;;1.00;99.90;;;;;;6244148;23;20519;-83